sensor_id;sensor_type;location;lat;lon;timestamp;pressure;altitude;pressure_sealevel;temperature;humidity
76746;BME280;65671;49.976;20.038;2024-03-02T00:00:18;97227.19;;;6.14;100.00
76746;BME280;65671;49.976;20.038;2024-03-02T00:02:48;97222.22;;;6.16;100.00
76746;BME280;65671;49.976;20.038;2024-03-02T00:05:16;97211.81;;;6.04;100.00
76746;BME280;65671;49.976;20.038;2024-03-02T00:07:42;97231.06;;;6.24;100.00
76746;BME280;65671;49.976;20.038;2024-03-02T00:10:10;97228.75;;;6.15;100.00
76746;BME280;65671;49.976;20.038;2024-03-02T00:12:39;97229.84;;;5.93;100.00
76746;BME280;65671;49.976;20.038;2024-03-02T00:15:40;97228.72;;;6.08;100.00
76746;BME280;65671;49.976;20.038;2024-03-02T00:18:19;97225.56;;;5.85;100.00
76746;BME280;65671;49.976;20.038;2024-03-02T00:20:45;97220.59;;;5.91;100.00
76746;BME280;65671;49.976;20.038;2024-03-02T00:23:15;97222.91;;;5.99;100.00
76746;BME280;65671;49.976;20.038;2024-03-02T00:25:44;97231.41;;;6.05;100.00
76746;BME280;65671;49.976;20.038;2024-03-02T00:28:18;97228.72;;;6.08;100.00
76746;BME280;65671;49.976;20.038;2024-03-02T00:30:58;97233.66;;;5.99;100.00
76746;BME280;65671;49.976;20.038;2024-03-02T00:33:30;97226.72;;;5.84;100.00
76746;BME280;65671;49.976;20.038;2024-03-02T00:35:57;97226.72;;;5.88;100.00
76746;BME280;65671;49.976;20.038;2024-03-02T00:38:23;97223.69;;;6.00;100.00
76746;BME280;65671;49.976;20.038;2024-03-02T00:40:49;97238.72;;;6.18;100.00
76746;BME280;65671;49.976;20.038;2024-03-02T00:45:49;97227.97;;;6.18;100.00
76746;BME280;65671;49.976;20.038;2024-03-02T00:48:16;97228.75;;;6.19;100.00
76746;BME280;65671;49.976;20.038;2024-03-02T00:50:44;97229.13;;;6.10;100.00
76746;BME280;65671;49.976;20.038;2024-03-02T00:53:12;97222.97;;;6.13;100.00
76746;BME280;65671;49.976;20.038;2024-03-02T00:55:38;97205.69;;;6.04;100.00
76746;BME280;65671;49.976;20.038;2024-03-02T00:58:04;97207.56;;;6.00;100.00
76746;BME280;65671;49.976;20.038;2024-03-02T01:00:35;97217.56;;;5.96;100.00
76746;BME280;65671;49.976;20.038;2024-03-02T01:03:01;97212.13;;;5.85;100.00
76746;BME280;65671;49.976;20.038;2024-03-02T01:05:26;97206.72;;;5.82;100.00
76746;BME280;65671;49.976;20.038;2024-03-02T01:07:53;97210.19;;;5.82;100.00
76746;BME280;65671;49.976;20.038;2024-03-02T01:10:18;97208.69;;;5.88;100.00
76746;BME280;65671;49.976;20.038;2024-03-02T01:12:45;97204.44;;;5.84;100.00
76746;BME280;65671;49.976;20.038;2024-03-02T01:15:11;97204.44;;;5.80;100.00
76746;BME280;65671;49.976;20.038;2024-03-02T01:17:39;97209.00;;;5.76;100.00
76746;BME280;65671;49.976;20.038;2024-03-02T01:20:10;97211.31;;;5.78;100.00
76746;BME280;65671;49.976;20.038;2024-03-02T01:22:36;97203.28;;;5.78;100.00
76746;BME280;65671;49.976;20.038;2024-03-02T01:25:03;97205.16;;;5.74;100.00
76746;BME280;65671;49.976;20.038;2024-03-02T01:27:28;97195.56;;;5.76;100.00
76746;BME280;65671;49.976;20.038;2024-03-02T01:29:56;97188.66;;;5.68;100.00
76746;BME280;65671;49.976;20.038;2024-03-02T01:32:22;97186.34;;;5.67;100.00
76746;BME280;65671;49.976;20.038;2024-03-02T01:34:50;97189.41;;;5.69;100.00
76746;BME280;65671;49.976;20.038;2024-03-02T01:37:16;97185.16;;;5.64;100.00
76746;BME280;65671;49.976;20.038;2024-03-02T01:39:41;97185.94;;;5.64;100.00
76746;BME280;65671;49.976;20.038;2024-03-02T01:42:07;97175.19;;;5.64;100.00
76746;BME280;65671;49.976;20.038;2024-03-02T01:44:41;97182.09;;;5.58;100.00
76746;BME280;65671;49.976;20.038;2024-03-02T01:47:07;97185.16;;;5.57;100.00
76746;BME280;65671;49.976;20.038;2024-03-02T01:49:32;97175.59;;;5.63;100.00
76746;BME280;65671;49.976;20.038;2024-03-02T01:51:59;97182.09;;;5.58;100.00
76746;BME280;65671;49.976;20.038;2024-03-02T01:54:25;97175.13;;;5.47;100.00
76746;BME280;65671;49.976;20.038;2024-03-02T01:56:50;97172.88;;;5.49;100.00
76746;BME280;65671;49.976;20.038;2024-03-02T01:59:16;97168.19;;;5.35;100.00
76746;BME280;65671;49.976;20.038;2024-03-02T02:01:42;97175.84;;;5.33;100.00
76746;BME280;65671;49.976;20.038;2024-03-02T02:04:07;97178.56;;;5.44;100.00
76746;BME280;65671;49.976;20.038;2024-03-02T02:06:33;97169.00;;;5.43;100.00
76746;BME280;65671;49.976;20.038;2024-03-02T02:08:58;97169.75;;;5.40;100.00
76746;BME280;65671;49.976;20.038;2024-03-02T02:11:24;97170.13;;;5.42;100.00
76746;BME280;65671;49.976;20.038;2024-03-02T02:13:50;97165.88;;;5.34;100.00
76746;BME280;65671;49.976;20.038;2024-03-02T02:16:15;97158.59;;;5.31;100.00
76746;BME280;65671;49.976;20.038;2024-03-02T02:18:41;97172.00;;;5.27;100.00
76746;BME280;65671;49.976;20.038;2024-03-02T02:21:07;97158.88;;;5.15;100.00
76746;BME280;65671;49.976;20.038;2024-03-02T02:23:36;97171.19;;;5.23;100.00
76746;BME280;65671;49.976;20.038;2024-03-02T02:26:06;97172.72;;;5.21;100.00
76746;BME280;65671;49.976;20.038;2024-03-02T02:28:32;97170.41;;;5.23;100.00
76746;BME280;65671;49.976;20.038;2024-03-02T02:30:57;97172.69;;;5.14;100.00
76746;BME280;65671;49.976;20.038;2024-03-02T02:33:25;97160.34;;;5.02;100.00
76746;BME280;65671;49.976;20.038;2024-03-02T02:35:50;97152.72;;;5.07;100.00
76746;BME280;65671;49.976;20.038;2024-03-02T02:38:16;97162.69;;;5.07;100.00
76746;BME280;65671;49.976;20.038;2024-03-02T02:40:41;97162.63;;;5.00;100.00
76746;BME280;65671;49.976;20.038;2024-03-02T02:43:07;97158.78;;;4.97;100.00
76746;BME280;65671;49.976;20.038;2024-03-02T02:45:32;97158.47;;;5.06;100.00
76746;BME280;65671;49.976;20.038;2024-03-02T02:47:58;97159.94;;;5.00;100.00
76746;BME280;65671;49.976;20.038;2024-03-02T02:50:23;97152.59;;;4.86;100.00
76746;BME280;65671;49.976;20.038;2024-03-02T02:52:48;97155.75;;;5.02;100.00
76746;BME280;65671;49.976;20.038;2024-03-02T02:55:15;97150.41;;;5.06;100.00
76746;BME280;65671;49.976;20.038;2024-03-02T02:57:42;97150.69;;;4.90;100.00
76746;BME280;65671;49.976;20.038;2024-03-02T03:00:12;97145.34;;;4.87;100.00
76746;BME280;65671;49.976;20.038;2024-03-02T03:02:44;97158.75;;;4.90;100.00
76746;BME280;65671;49.976;20.038;2024-03-02T03:05:13;97153.41;;;4.94;100.00
76746;BME280;65671;49.976;20.038;2024-03-02T03:07:43;97159.97;;;5.03;100.00
76746;BME280;65671;49.976;20.038;2024-03-02T03:10:12;97170.75;;;5.11;100.00
76746;BME280;65671;49.976;20.038;2024-03-02T03:12:38;97179.63;;;5.22;100.00
76746;BME280;65671;49.976;20.038;2024-03-02T03:15:04;97171.53;;;5.15;100.00
76746;BME280;65671;49.976;20.038;2024-03-02T03:17:30;97167.72;;;5.16;100.00
76746;BME280;65671;49.976;20.038;2024-03-02T03:19:55;97175.44;;;5.24;100.00
76746;BME280;65671;49.976;20.038;2024-03-02T03:22:21;97178.88;;;5.25;100.00
76746;BME280;65671;49.976;20.038;2024-03-02T03:24:46;97173.53;;;5.28;100.00
76746;BME280;65671;49.976;20.038;2024-03-02T03:27:12;97160.50;;;5.30;100.00
76746;BME280;65671;49.976;20.038;2024-03-02T03:29:37;97168.16;;;5.28;100.00
76746;BME280;65671;49.976;20.038;2024-03-02T03:32:03;97155.84;;;5.20;100.00
76746;BME280;65671;49.976;20.038;2024-03-02T03:34:33;97147.44;;;5.22;100.00
76746;BME280;65671;49.976;20.038;2024-03-02T03:37:02;97154.31;;;5.23;100.00
76746;BME280;65671;49.976;20.038;2024-03-02T03:39:28;97150.47;;;5.20;100.00
76746;BME280;65671;49.976;20.038;2024-03-02T03:41:54;97156.22;;;5.19;100.00
76746;BME280;65671;49.976;20.038;2024-03-02T03:44:19;97151.22;;;5.17;100.00
76746;BME280;65671;49.976;20.038;2024-03-02T03:46:45;97152.00;;;5.18;100.00
76746;BME280;65671;49.976;20.038;2024-03-02T03:49:10;97152.75;;;5.15;100.00
76746;BME280;65671;49.976;20.038;2024-03-02T03:51:36;97151.59;;;5.12;100.00
76746;BME280;65671;49.976;20.038;2024-03-02T03:54:01;97157.72;;;5.09;100.00
76746;BME280;65671;49.976;20.038;2024-03-02T03:56:27;97148.91;;;5.12;100.00
76746;BME280;65671;49.976;20.038;2024-03-02T03:58:52;97155.38;;;5.04;100.00
76746;BME280;65671;49.976;20.038;2024-03-02T04:01:23;97147.34;;;5.04;100.00
76746;BME280;65671;49.976;20.038;2024-03-02T04:03:48;97151.53;;;5.01;100.00
76746;BME280;65671;49.976;20.038;2024-03-02T04:06:14;97150.03;;;5.11;100.00
76746;BME280;65671;49.976;20.038;2024-03-02T04:08:41;97152.38;;;5.13;100.00
76746;BME280;65671;49.976;20.038;2024-03-02T04:11:07;97154.31;;;5.16;100.00
76746;BME280;65671;49.976;20.038;2024-03-02T04:13:33;97149.28;;;5.11;100.00
76746;BME280;65671;49.976;20.038;2024-03-02T04:15:58;97151.19;;;5.06;100.00
76746;BME280;65671;49.976;20.038;2024-03-02T04:18:24;97151.19;;;5.06;100.00
76746;BME280;65671;49.976;20.038;2024-03-02T04:20:49;97145.06;;;5.10;100.00
76746;BME280;65671;49.976;20.038;2024-03-02T04:23:15;97156.56;;;5.10;100.00
76746;BME280;65671;49.976;20.038;2024-03-02T04:25:43;97159.66;;;5.16;100.00
76746;BME280;65671;49.976;20.038;2024-03-02T04:28:11;97158.91;;;5.19;100.00
76746;BME280;65671;49.976;20.038;2024-03-02T04:30:37;97160.84;;;5.22;100.00
76746;BME280;65671;49.976;20.038;2024-03-02T04:33:03;97161.22;;;5.24;100.00
76746;BME280;65671;49.976;20.038;2024-03-02T04:35:29;97155.47;;;5.22;100.00
76746;BME280;65671;49.976;20.038;2024-03-02T04:37:57;97155.44;;;5.15;100.00
76746;BME280;65671;49.976;20.038;2024-03-02T04:40:22;97147.41;;;5.18;100.00
76746;BME280;65671;49.976;20.038;2024-03-02T04:42:48;97144.34;;;5.20;100.00
76746;BME280;65671;49.976;20.038;2024-03-02T04:45:13;97147.03;;;5.23;100.00
76746;BME280;65671;49.976;20.038;2024-03-02T04:47:39;97134.78;;;5.26;100.00
76746;BME280;65671;49.976;20.038;2024-03-02T04:50:05;97141.31;;;5.32;100.00
76746;BME280;65671;49.976;20.038;2024-03-02T04:52:31;97139.41;;;5.25;100.00
76746;BME280;65671;49.976;20.038;2024-03-02T04:54:56;97147.75;;;5.10;100.00
76746;BME280;65671;49.976;20.038;2024-03-02T04:57:40;97142.72;;;5.01;100.00
76746;BME280;65671;49.976;20.038;2024-03-02T05:00:06;97139.53;;;4.81;100.00
76746;BME280;65671;49.976;20.038;2024-03-02T05:02:34;97153.41;;;4.94;100.00
76746;BME280;65671;49.976;20.038;2024-03-02T05:05:02;97150.31;;;4.88;100.00
76746;BME280;65671;49.976;20.038;2024-03-02T05:07:28;97151.09;;;4.92;100.00
76746;BME280;65671;49.976;20.038;2024-03-02T05:09:53;97154.22;;;5.01;100.00
76746;BME280;65671;49.976;20.038;2024-03-02T05:12:19;97156.53;;;5.03;100.00
76746;BME280;65671;49.976;20.038;2024-03-02T05:15:03;97158.84;;;5.04;100.00
76746;BME280;65671;49.976;20.038;2024-03-02T05:17:29;97171.09;;;5.05;100.00
76746;BME280;65671;49.976;20.038;2024-03-02T05:19:54;97172.66;;;5.10;100.00
76746;BME280;65671;49.976;20.038;2024-03-02T05:22:20;97180.84;;;5.31;100.00
76746;BME280;65671;49.976;20.038;2024-03-02T05:24:50;97180.50;;;5.47;100.00
76746;BME280;65671;49.976;20.038;2024-03-02T05:27:15;97178.53;;;5.33;100.00
76746;BME280;65671;49.976;20.038;2024-03-02T05:29:41;97179.66;;;5.25;100.00
76746;BME280;65671;49.976;20.038;2024-03-02T05:32:06;97183.44;;;5.21;100.00
76746;BME280;65671;49.976;20.038;2024-03-02T05:34:32;97184.19;;;5.11;100.00
76746;BME280;65671;49.976;20.038;2024-03-02T05:37:00;97188.09;;;5.27;100.00
76746;BME280;65671;49.976;20.038;2024-03-02T05:39:25;97187.34;;;5.30;100.00
76746;BME280;65671;49.976;20.038;2024-03-02T05:41:53;97192.69;;;5.27;100.00
76746;BME280;65671;49.976;20.038;2024-03-02T05:44:19;97195.44;;;5.41;100.00
76746;BME280;65671;49.976;20.038;2024-03-02T05:46:45;97185.50;;;5.45;100.00
76746;BME280;65671;49.976;20.038;2024-03-02T05:49:10;97182.81;;;5.48;100.00
76746;BME280;65671;49.976;20.038;2024-03-02T05:51:36;97191.22;;;5.36;100.00
76746;BME280;65671;49.976;20.038;2024-03-02T05:54:01;97178.25;;;5.56;100.00
76746;BME280;65671;49.976;20.038;2024-03-02T05:56:27;97187.84;;;5.57;100.00
76746;BME280;65671;49.976;20.038;2024-03-02T05:58:53;97191.25;;;5.50;100.00
76746;BME280;65671;49.976;20.038;2024-03-02T06:01:37;97187.78;;;5.46;100.00
76746;BME280;65671;49.976;20.038;2024-03-02T06:04:02;97194.34;;;5.52;100.00
76746;BME280;65671;49.976;20.038;2024-03-02T06:06:28;97204.38;;;5.66;100.00
76746;BME280;65671;49.976;20.038;2024-03-02T06:08:53;97205.16;;;5.67;100.00
76746;BME280;65671;49.976;20.038;2024-03-02T06:11:21;97208.19;;;5.65;100.00
76746;BME280;65671;49.976;20.038;2024-03-02T06:13:47;97215.16;;;5.77;100.00
76746;BME280;65671;49.976;20.038;2024-03-02T06:16:12;97208.66;;;5.81;100.00
76746;BME280;65671;49.976;20.038;2024-03-02T06:18:38;97207.84;;;5.67;100.00
76746;BME280;65671;49.976;20.038;2024-03-02T06:21:03;97211.34;;;5.81;100.00
76746;BME280;65671;49.976;20.038;2024-03-02T06:23:32;97212.19;;;5.96;100.00
76746;BME280;65671;49.976;20.038;2024-03-02T06:25:57;97210.66;;;5.98;100.00
76746;BME280;65671;49.976;20.038;2024-03-02T06:28:23;97213.72;;;6.00;100.00
76746;BME280;65671;49.976;20.038;2024-03-02T06:30:48;97216.81;;;6.09;100.00
76746;BME280;65671;49.976;20.038;2024-03-02T06:33:14;97213.38;;;6.23;100.00
76746;BME280;65671;49.976;20.038;2024-03-02T06:35:39;97206.88;;;6.24;100.00
76746;BME280;65671;49.976;20.038;2024-03-02T06:38:05;97198.03;;;6.38;100.00
76746;BME280;65671;49.976;20.038;2024-03-02T06:40:30;97216.78;;;6.02;100.00
76746;BME280;65671;49.976;20.038;2024-03-02T06:42:59;97209.16;;;6.18;100.00
76746;BME280;65671;49.976;20.038;2024-03-02T06:45:24;97213.41;;;6.20;100.00
76746;BME280;65671;49.976;20.038;2024-03-02T06:47:50;97209.16;;;6.08;100.00
76746;BME280;65671;49.976;20.038;2024-03-02T06:50:15;97214.16;;;6.27;100.00
76746;BME280;65671;49.976;20.038;2024-03-02T06:52:41;97207.22;;;6.05;100.00
76746;BME280;65671;49.976;20.038;2024-03-02T06:55:07;97221.06;;;6.17;100.00
76746;BME280;65671;49.976;20.038;2024-03-02T06:57:33;97218.75;;;6.16;100.00
76746;BME280;65671;49.976;20.038;2024-03-02T06:59:58;97217.59;;;6.13;100.00
76746;BME280;65671;49.976;20.038;2024-03-02T07:02:27;97229.13;;;6.21;100.00
76746;BME280;65671;49.976;20.038;2024-03-02T07:04:54;97227.59;;;6.24;100.00
76746;BME280;65671;49.976;20.038;2024-03-02T07:07:19;97219.94;;;6.33;100.00
76746;BME280;65671;49.976;20.038;2024-03-02T07:09:45;97214.16;;;6.13;100.00
76746;BME280;65671;49.976;20.038;2024-03-02T07:12:10;97232.97;;;6.27;100.00
76746;BME280;65671;49.976;20.038;2024-03-02T07:14:36;97238.41;;;6.52;100.00
76746;BME280;65671;49.976;20.038;2024-03-02T07:17:20;97223.03;;;6.49;100.00
76746;BME280;65671;49.976;20.038;2024-03-02T07:19:45;97234.56;;;6.32;100.00
76746;BME280;65671;49.976;20.038;2024-03-02T07:22:11;97238.00;;;6.43;100.00
76746;BME280;65671;49.976;20.038;2024-03-02T07:24:41;97241.88;;;6.70;100.00
76746;BME280;65671;49.976;20.038;2024-03-02T07:27:07;97243.81;;;6.73;100.00
76746;BME280;65671;49.976;20.038;2024-03-02T07:29:32;97241.09;;;6.66;100.00
76746;BME280;65671;49.976;20.038;2024-03-02T07:31:58;97239.19;;;6.70;100.00
76746;BME280;65671;49.976;20.038;2024-03-02T07:34:24;97248.41;;;6.72;100.00
76746;BME280;65671;49.976;20.038;2024-03-02T07:36:49;97249.94;;;6.77;100.00
76746;BME280;65671;49.976;20.038;2024-03-02T07:39:15;97244.59;;;6.84;100.00
76746;BME280;65671;49.976;20.038;2024-03-02T07:41:41;97250.34;;;6.90;100.00
76746;BME280;65671;49.976;20.038;2024-03-02T07:44:07;97248.41;;;7.04;100.00
76746;BME280;65671;49.976;20.038;2024-03-02T07:46:32;97241.13;;;6.91;100.00
76746;BME280;65671;49.976;20.038;2024-03-02T07:48:58;97247.25;;;6.98;100.00
76746;BME280;65671;49.976;20.038;2024-03-02T07:51:24;97254.91;;;7.21;100.00
76746;BME280;65671;49.976;20.038;2024-03-02T07:53:52;97256.06;;;7.38;100.00
76746;BME280;65671;49.976;20.038;2024-03-02T07:56:17;97261.09;;;7.28;100.00
76746;BME280;65671;49.976;20.038;2024-03-02T07:58:48;97261.47;;;7.13;100.00
76746;BME280;65671;49.976;20.038;2024-03-02T08:01:14;97256.88;;;6.96;100.00
76746;BME280;65671;49.976;20.038;2024-03-02T08:03:40;97259.16;;;7.25;100.00
76746;BME280;65671;49.976;20.038;2024-03-02T08:06:06;97260.69;;;7.12;100.00
76746;BME280;65671;49.976;20.038;2024-03-02T08:08:31;97253.41;;;6.99;100.00
76746;BME280;65671;49.976;20.038;2024-03-02T08:10:57;97258.38;;;7.21;100.00
76746;BME280;65671;49.976;20.038;2024-03-02T08:13:22;97253.81;;;7.11;100.00
76746;BME280;65671;49.976;20.038;2024-03-02T08:15:48;97257.63;;;7.24;100.00
76746;BME280;65671;49.976;20.038;2024-03-02T08:18:13;97257.59;;;7.17;100.00
76746;BME280;65671;49.976;20.038;2024-03-02T08:20:42;97251.47;;;7.13;100.00
76746;BME280;65671;49.976;20.038;2024-03-02T08:23:08;97260.72;;;6.91;100.00
76746;BME280;65671;49.976;20.038;2024-03-02T08:25:33;97262.25;;;7.06;100.00
76746;BME280;65671;49.976;20.038;2024-03-02T08:27:59;97262.25;;;7.06;100.00
76746;BME280;65671;49.976;20.038;2024-03-02T08:30:24;97272.22;;;7.23;100.00
76746;BME280;65671;49.976;20.038;2024-03-02T08:32:50;97276.06;;;7.12;100.00
76746;BME280;65671;49.976;20.038;2024-03-02T08:35:15;97272.19;;;7.52;100.00
76746;BME280;65671;49.976;20.038;2024-03-02T08:37:42;97267.94;;;7.51;100.00
76746;BME280;65671;49.976;20.038;2024-03-02T08:40:09;97265.28;;;7.29;100.00
76746;BME280;65671;49.976;20.038;2024-03-02T08:42:35;97270.31;;;7.27;100.00
76746;BME280;65671;49.976;20.038;2024-03-02T08:45:01;97275.28;;;7.43;100.00
76746;BME280;65671;49.976;20.038;2024-03-02T08:47:27;97276.84;;;7.30;100.00
76746;BME280;65671;49.976;20.038;2024-03-02T08:49:52;97277.97;;;7.36;100.00
76746;BME280;65671;49.976;20.038;2024-03-02T08:52:18;97277.63;;;7.16;100.00
76746;BME280;65671;49.976;20.038;2024-03-02T08:54:43;97277.97;;;7.36;100.00
76746;BME280;65671;49.976;20.038;2024-03-02T08:57:09;97276.81;;;7.48;100.00
76746;BME280;65671;49.976;20.038;2024-03-02T08:59:35;97281.44;;;7.37;100.00
76746;BME280;65671;49.976;20.038;2024-03-02T09:02:00;97283.75;;;7.45;100.00
76746;BME280;65671;49.976;20.038;2024-03-02T09:04:27;97276.41;;;7.60;100.00
76746;BME280;65671;49.976;20.038;2024-03-02T09:06:53;97283.75;;;7.45;100.00
76746;BME280;65671;49.976;20.038;2024-03-02T09:09:19;97282.56;;;7.67;100.00
76746;BME280;65671;49.976;20.038;2024-03-02T09:11:46;97286.00;;;7.68;100.00
76746;BME280;65671;49.976;20.038;2024-03-02T09:14:12;97284.50;;;7.49;100.00
76746;BME280;65671;49.976;20.038;2024-03-02T09:16:40;97288.34;;;7.48;100.00
76746;BME280;65671;49.976;20.038;2024-03-02T09:19:05;97293.75;;;7.48;100.00
76746;BME280;65671;49.976;20.038;2024-03-02T09:21:31;97288.69;;;7.75;100.00
76746;BME280;65671;49.976;20.038;2024-03-02T09:23:56;97298.31;;;7.72;100.00
76746;BME280;65671;49.976;20.038;2024-03-02T09:26:22;97299.50;;;7.57;100.00
76746;BME280;65671;49.976;20.038;2024-03-02T09:28:50;97300.66;;;7.56;100.00
76746;BME280;65671;49.976;20.038;2024-03-02T09:31:16;97306.41;;;7.65;100.00
76746;BME280;65671;49.976;20.038;2024-03-02T09:33:42;97301.81;;;7.45;100.00
76746;BME280;65671;49.976;20.038;2024-03-02T09:36:22;97310.66;;;7.59;100.00
76746;BME280;65671;49.976;20.038;2024-03-02T09:38:48;97312.56;;;7.59;100.00
76746;BME280;65671;49.976;20.038;2024-03-02T09:41:14;97303.72;;;7.65;100.00
76746;BME280;65671;49.976;20.038;2024-03-02T09:43:40;97321.06;;;7.32;100.00
76746;BME280;65671;49.976;20.038;2024-03-02T09:46:09;97313.38;;;7.45;100.00
76746;BME280;65671;49.976;20.038;2024-03-02T09:48:35;97323.75;;;7.54;100.00
76746;BME280;65671;49.976;20.038;2024-03-02T09:51:01;97319.84;;;7.79;100.00
76746;BME280;65671;49.976;20.038;2024-03-02T09:53:31;97333.66;;;7.92;100.00
76746;BME280;65671;49.976;20.038;2024-03-02T09:55:57;97334.81;;;7.98;100.00
76746;BME280;65671;49.976;20.038;2024-03-02T09:58:22;97330.50;;;8.18;100.00
76746;BME280;65671;49.976;20.038;2024-03-02T10:00:48;97335.06;;;8.35;100.00
76746;BME280;65671;49.976;20.038;2024-03-02T10:03:14;97333.81;;;8.61;100.00
76746;BME280;65671;49.976;20.038;2024-03-02T10:05:40;97335.81;;;8.43;100.00
76746;BME280;65671;49.976;20.038;2024-03-02T10:08:06;97331.16;;;8.51;100.00
76746;BME280;65671;49.976;20.038;2024-03-02T10:10:36;97316.06;;;8.64;100.00
76746;BME280;65671;49.976;20.038;2024-03-02T10:13:06;97326.78;;;8.74;100.00
76746;BME280;65671;49.976;20.038;2024-03-02T10:15:32;97318.88;;;8.35;100.00
76746;BME280;65671;49.976;20.038;2024-03-02T10:17:57;97313.38;;;8.57;100.00
76746;BME280;65671;49.976;20.038;2024-03-02T10:20:24;97310.31;;;8.55;100.00
76746;BME280;65671;49.976;20.038;2024-03-02T10:22:50;97312.16;;;8.68;100.00
76746;BME280;65671;49.976;20.038;2024-03-02T10:25:32;97308.78;;;8.54;100.00
76746;BME280;65671;49.976;20.038;2024-03-02T10:28:00;97302.50;;;8.74;100.00
76746;BME280;65671;49.976;20.038;2024-03-02T10:30:30;97314.75;;;8.86;100.00
76746;BME280;65671;49.976;20.038;2024-03-02T10:32:55;97308.22;;;8.83;100.00
76746;BME280;65671;49.976;20.038;2024-03-02T10:35:22;97312.00;;;8.93;100.00
76746;BME280;65671;49.976;20.038;2024-03-02T10:37:52;97315.34;;;9.15;100.00
76746;BME280;65671;49.976;20.038;2024-03-02T10:40:20;97310.91;;;8.87;100.00
76746;BME280;65671;49.976;20.038;2024-03-02T10:42:46;97311.78;;;9.21;100.00
76746;BME280;65671;49.976;20.038;2024-03-02T10:45:15;97303.13;;;9.40;100.00
76746;BME280;65671;49.976;20.038;2024-03-02T10:47:43;97302.81;;;9.35;100.00
76746;BME280;65671;49.976;20.038;2024-03-02T10:50:10;97305.03;;;9.47;100.00
76746;BME280;65671;49.976;20.038;2024-03-02T10:52:37;97296.69;;;9.27;100.00
76746;BME280;65671;49.976;20.038;2024-03-02T10:55:03;97298.13;;;9.39;100.00
76746;BME280;65671;49.976;20.038;2024-03-02T11:00:08;97302.25;;;9.91;100.00
76746;BME280;65671;49.976;20.038;2024-03-02T11:02:44;97302.75;;;9.79;100.00
76746;BME280;65671;49.976;20.038;2024-03-02T11:05:19;97301.19;;;9.82;100.00
76746;BME280;65671;49.976;20.038;2024-03-02T11:07:48;97306.53;;;9.89;100.00
76746;BME280;65671;49.976;20.038;2024-03-02T11:10:14;97311.28;;;10.12;100.00
76746;BME280;65671;49.976;20.038;2024-03-02T11:12:50;97313.38;;;9.97;100.00
76746;BME280;65671;49.976;20.038;2024-03-02T11:15:18;97311.56;;;9.87;100.00
76746;BME280;65671;49.976;20.038;2024-03-02T11:17:47;97310.47;;;9.81;100.00
76746;BME280;65671;49.976;20.038;2024-03-02T11:20:14;97302.16;;;9.65;100.00
76746;BME280;65671;49.976;20.038;2024-03-02T11:22:40;97296.88;;;9.88;100.00
76746;BME280;65671;49.976;20.038;2024-03-02T11:25:22;97289.63;;;9.78;100.00
76746;BME280;65671;49.976;20.038;2024-03-02T11:33:03;97285.31;;;9.46;100.00
76746;BME280;65671;49.976;20.038;2024-03-02T11:35:38;97280.31;;;9.45;100.00
76746;BME280;65671;49.976;20.038;2024-03-02T11:38:09;97280.34;;;9.79;100.00
76746;BME280;65671;49.976;20.038;2024-03-02T11:40:35;97283.34;;;9.88;100.00
76746;BME280;65671;49.976;20.038;2024-03-02T11:43:01;97283.88;;;9.76;100.00
76746;BME280;65671;49.976;20.038;2024-03-02T11:45:27;97286.66;;;10.02;100.00
76746;BME280;65671;49.976;20.038;2024-03-02T11:47:59;97284.28;;;10.08;100.00
76746;BME280;65671;49.976;20.038;2024-03-02T11:50:42;97289.56;;;10.49;100.00
76746;BME280;65671;49.976;20.038;2024-03-02T11:53:09;97292.84;;;10.63;100.00
76746;BME280;65671;49.976;20.038;2024-03-02T11:55:36;97276.13;;;10.12;100.00
76746;BME280;65671;49.976;20.038;2024-03-02T11:58:03;97278.25;;;9.93;100.00
76746;BME280;65671;49.976;20.038;2024-03-02T12:00:29;97287.22;;;10.24;100.00
76746;BME280;65671;49.976;20.038;2024-03-02T12:03:06;97292.38;;;10.08;100.00
76746;BME280;65671;49.976;20.038;2024-03-02T12:05:32;97289.41;;;10.33;100.00
76746;BME280;65671;49.976;20.038;2024-03-02T12:08:02;97291.25;;;10.05;100.00
76746;BME280;65671;49.976;20.038;2024-03-02T12:10:29;97292.69;;;10.17;100.00
76746;BME280;65671;49.976;20.038;2024-03-02T12:13:01;97305.50;;;10.43;100.00
76746;BME280;65671;49.976;20.038;2024-03-02T12:15:32;97291.81;;;10.54;100.00
76746;BME280;65671;49.976;20.038;2024-03-02T12:18:00;97280.66;;;10.22;100.00
76746;BME280;65671;49.976;20.038;2024-03-02T12:20:27;97292.34;;;10.15;100.00
76746;BME280;65671;49.976;20.038;2024-03-02T12:22:57;97288.75;;;10.52;100.00
76746;BME280;65671;49.976;20.038;2024-03-02T12:25:24;97280.59;;;10.55;100.00
76746;BME280;65671;49.976;20.038;2024-03-02T12:27:52;97290.75;;;10.75;100.00
76746;BME280;65671;49.976;20.038;2024-03-02T12:30:19;97287.34;;;10.97;100.00
76746;BME280;65671;49.976;20.038;2024-03-02T12:32:45;97290.56;;;10.89;100.00
76746;BME280;65671;49.976;20.038;2024-03-02T12:35:11;97284.72;;;10.90;100.00
76746;BME280;65671;49.976;20.038;2024-03-02T12:37:51;97287.97;;;11.28;100.00
76746;BME280;65671;49.976;20.038;2024-03-02T12:40:19;97286.75;;;11.09;100.00
76746;BME280;65671;49.976;20.038;2024-03-02T12:42:47;97284.56;;;11.01;100.00
76746;BME280;65671;49.976;20.038;2024-03-02T12:45:13;97280.50;;;11.36;100.00
76746;BME280;65671;49.976;20.038;2024-03-02T12:47:40;97285.69;;;11.27;100.00
76746;BME280;65671;49.976;20.038;2024-03-02T12:50:07;97284.34;;;11.38;100.00
76746;BME280;65671;49.976;20.038;2024-03-02T12:52:33;97290.63;;;11.32;100.00
76746;BME280;65671;49.976;20.038;2024-03-02T12:55:04;97288.59;;;11.39;100.00
76746;BME280;65671;49.976;20.038;2024-03-02T12:57:31;97279.53;;;11.46;100.00